Time;durP1;ratioP1;P1;durP2;ratioP2;P2;SDS_P1;SDS_P2;PMS_P1;PMS_P2;Temp;Humidity;BMP_temperature;BMP_pressure;BME280_temperature;BME280_humidity;BME280_pressure;Samples;Min_cycle;Max_cycle;Signal;HPM_P1;HPM_P2
2022/08/30 00:02:45;;;;;;;8.40;3.40;;;;;;;16.35;45.55;100215.19;10343662;28;20050;-59
2022/08/30 00:07:47;;;;;;;8.90;3.20;;;;;;;16.26;45.97;100213.31;10343853;28;20090;-59
2022/08/30 00:12:49;;;;;;;12.23;3.40;;;;;;;15.92;46.31;100210.66;10345248;28;20551;-59
2022/08/30 00:17:53;;;;;;;8.10;3.20;;;;;;;15.95;46.57;100215.69;10343344;28;20072;-59
2022/08/30 00:22:55;;;;;;;8.32;3.33;;;;;;;15.89;47.25;100226.72;10344693;28;20054;-59
2022/08/30 00:27:56;;;;;;;7.75;3.00;;;;;;;15.88;47.29;100221.56;10343936;28;20494;-59
2022/08/30 00:32:58;;;;;;;6.53;3.30;;;;;;;15.92;47.47;100221.19;10344999;28;20060;-59
2022/08/30 00:38:00;;;;;;;10.27;3.10;;;;;;;15.84;47.58;100223.59;10343405;28;20068;-59
2022/08/30 00:43:06;;;;;;;4.82;3.10;;;;;;;15.55;48.01;100232.06;10343994;28;20049;-59
2022/08/30 00:48:07;;;;;;;8.55;3.10;;;;;;;15.30;48.42;100238.28;10343916;28;20049;-59
2022/08/30 00:53:18;;;;;;;10.80;3.33;;;;;;;15.08;49.15;100239.00;10343396;28;20565;-59
2022/08/30 00:58:26;;;;;;;8.55;3.60;;;;;;;15.18;49.58;100244.47;10342579;28;20502;-59
2022/08/30 01:03:28;;;;;;;6.53;3.13;;;;;;;15.32;49.50;100242.50;10343342;28;20052;-59
2022/08/30 01:08:30;;;;;;;8.75;3.38;;;;;;;15.39;49.02;100237.56;10342215;28;20141;-59
2022/08/30 01:13:34;;;;;;;6.03;3.08;;;;;;;15.07;49.44;100241.75;10342209;28;20050;-59
2022/08/30 01:18:38;;;;;;;8.43;3.10;;;;;;;14.73;50.42;100238.13;10342101;28;20049;-59
2022/08/30 01:23:43;;;;;;;5.82;2.90;;;;;;;14.95;50.05;100246.13;10344426;28;20060;-59
2022/08/30 01:28:48;;;;;;;6.63;3.70;;;;;;;15.08;49.83;100248.72;10342955;28;20418;-59
2022/08/30 01:33:50;;;;;;;6.88;3.22;;;;;;;14.98;50.35;100256.44;10342619;28;20056;-59
2022/08/30 01:38:55;;;;;;;8.05;3.33;;;;;;;14.92;51.00;100250.78;10341342;28;20062;-59
2022/08/30 01:44:00;;;;;;;5.85;3.17;;;;;;;14.91;50.37;100242.06;10342555;28;20352;-59
2022/08/30 01:49:05;;;;;;;10.35;3.20;;;;;;;14.32;51.45;100253.31;10341562;28;20050;-59
2022/08/30 01:54:08;;;;;;;7.68;3.38;;;;;;;14.27;51.64;100245.75;10341289;28;20049;-59
2022/08/30 01:59:09;;;;;;;7.55;3.58;;;;;;;14.62;51.31;100247.72;10342432;28;20536;-59
2022/08/30 02:04:13;;;;;;;6.07;2.90;;;;;;;14.83;51.08;100248.81;10347636;28;20058;-59
2022/08/30 02:09:15;;;;;;;9.18;2.90;;;;;;;14.70;51.25;100248.84;10348697;28;20046;-59
2022/08/30 02:14:16;;;;;;;8.80;3.10;;;;;;;14.77;51.31;100242.22;10348202;28;20164;-59
2022/08/30 02:19:21;;;;;;;8.40;3.25;;;;;;;14.57;51.32;100243.63;10349063;28;20804;-59
2022/08/30 02:24:23;;;;;;;6.32;3.10;;;;;;;14.65;51.39;100260.66;10344803;28;20046;-59
2022/08/30 02:29:25;;;;;;;6.57;2.90;;;;;;;14.82;51.09;100257.69;10353043;28;20064;-59
2022/08/30 02:34:26;;;;;;;6.95;3.13;;;;;;;14.91;50.96;100249.09;10350881;28;20060;-59
2022/08/30 02:39:28;;;;;;;6.90;3.05;;;;;;;15.03;50.63;100253.47;10355337;28;20063;-59
2022/08/30 02:44:30;;;;;;;8.85;3.08;;;;;;;14.71;51.05;100244.44;10350097;28;20048;-59
2022/08/30 02:49:31;;;;;;;6.57;3.28;;;;;;;14.54;51.37;100235.09;10355137;28;20153;-60
2022/08/30 02:54:34;;;;;;;6.72;3.17;;;;;;;14.57;51.11;100238.34;10354017;28;20506;-59
2022/08/30 02:59:40;;;;;;;6.35;2.80;;;;;;;14.52;51.23;100229.97;10352598;28;20049;-59
2022/08/30 03:04:43;;;;;;;7.82;2.97;;;;;;;14.49;51.46;100226.72;10351270;28;20060;-59
2022/08/30 03:09:45;;;;;;;8.98;3.33;;;;;;;14.60;50.99;100232.03;10345288;28;20111;-59
2022/08/30 03:14:47;;;;;;;7.03;2.90;;;;;;;14.75;50.91;100220.41;10336702;28;20053;-60
2022/08/30 03:19:49;;;;;;;5.70;2.78;;;;;;;14.80;50.75;100210.38;10341895;28;20161;-59
2022/08/30 03:24:50;;;;;;;9.55;3.17;;;;;;;14.75;51.10;100217.78;10345415;28;20050;-60
2022/08/30 03:29:52;;;;;;;8.75;3.45;;;;;;;14.62;51.82;100213.50;10345714;28;20068;-59
2022/08/30 03:34:54;;;;;;;6.72;3.00;;;;;;;14.55;52.05;100224.47;10345791;28;20081;-60
2022/08/30 03:39:55;;;;;;;7.75;3.10;;;;;;;14.52;52.23;100224.69;10344115;28;20434;-60
2022/08/30 03:44:57;;;;;;;6.32;3.20;;;;;;;14.43;52.64;100222.66;10342207;28;20054;-60
2022/08/30 03:49:59;;;;;;;7.22;3.40;;;;;;;14.43;52.95;100224.47;10341254;28;20232;-60
2022/08/30 03:55:01;;;;;;;5.70;3.47;;;;;;;14.38;52.90;100216.91;10339865;28;20078;-60
2022/08/30 04:00:04;;;;;;;7.30;3.25;;;;;;;13.94;53.46;100226.22;10343939;28;20065;-60
2022/08/30 04:05:07;;;;;;;6.55;3.33;;;;;;;14.03;53.47;100225.56;10341492;28;20148;-60
2022/08/30 04:10:09;;;;;;;5.60;3.13;;;;;;;14.00;53.53;100233.69;10345208;28;20050;-60
2022/08/30 04:15:11;;;;;;;5.78;3.20;;;;;;;13.94;53.89;100236.75;10344832;28;20050;-60
2022/08/30 04:20:13;;;;;;;6.97;3.30;;;;;;;13.92;53.73;100234.22;10342848;28;20053;-59
2022/08/30 04:25:15;;;;;;;6.65;3.00;;;;;;;14.01;53.34;100233.56;10341940;28;20143;-60
2022/08/30 04:30:17;;;;;;;5.72;3.08;;;;;;;14.03;53.11;100231.69;10340971;28;20056;-59
2022/08/30 04:35:20;;;;;;;8.25;3.40;;;;;;;13.99;53.31;100224.09;10340649;28;20701;-59
2022/08/30 04:40:21;;;;;;;6.22;3.10;;;;;;;13.96;53.29;100230.44;10343583;28;20050;-60
2022/08/30 04:45:23;;;;;;;7.13;3.40;;;;;;;13.84;53.60;100243.56;10342406;28;20046;-59
2022/08/30 04:50:25;;;;;;;6.40;3.25;;;;;;;13.83;54.22;100234.84;10342481;28;20486;-60
2022/08/30 04:55:27;;;;;;;5.75;3.58;;;;;;;13.47;54.74;100237.31;10336884;28;20069;-60
2022/08/30 05:00:28;;;;;;;5.82;3.45;;;;;;;13.38;55.18;100251.03;10343005;28;20137;-60
2022/08/30 05:05:39;;;;;;;4.47;2.72;;;;;;;13.60;54.96;100248.69;10335769;28;20064;-60
2022/08/30 05:10:45;;;;;;;9.75;3.50;;;;;;;13.63;54.53;100249.34;10339336;28;20147;-60
2022/08/30 05:15:47;;;;;;;8.00;3.50;;;;;;;13.74;54.43;100262.59;10338214;28;20056;-60
2022/08/30 05:20:48;;;;;;;8.25;3.47;;;;;;;13.76;54.02;100265.09;10342389;28;20628;-60
2022/08/30 05:25:50;;;;;;;8.15;3.40;;;;;;;13.63;54.23;100262.47;10338905;28;20054;-60
2022/08/30 05:30:53;;;;;;;8.00;3.08;;;;;;;13.98;53.99;100264.50;10341303;28;20593;-60
2022/08/30 05:35:55;;;;;;;7.07;3.30;;;;;;;14.32;53.18;100272.59;10341550;28;20054;-60
2022/08/30 05:40:56;;;;;;;7.78;3.20;;;;;;;14.48;52.76;100278.47;10340351;28;20053;-60
2022/08/30 05:46:11;;;;;;;8.10;3.38;;;;;;;14.68;52.45;100279.72;10341142;28;20140;-60
2022/08/30 05:51:17;;;;;;;5.88;3.30;;;;;;;14.84;52.05;100287.38;10341536;28;20490;-60
2022/08/30 05:56:21;;;;;;;6.88;2.90;;;;;;;15.04;51.69;100281.50;10343147;28;20052;-60
2022/08/30 06:01:36;;;;;;;7.60;3.22;;;;;;;15.29;51.18;100273.47;10348292;28;20078;-59
2022/08/30 06:06:41;;;;;;;7.78;3.45;;;;;;;15.24;51.13;100273.00;10348258;28;20046;-60
2022/08/30 06:11:46;;;;;;;8.07;3.20;;;;;;;15.43;51.14;100265.38;10350217;28;20054;-60
2022/08/30 06:16:50;;;;;;;9.23;3.30;;;;;;;15.76;50.26;100265.53;10349334;28;20155;-60
2022/08/30 06:21:52;;;;;;;8.70;3.13;;;;;;;16.08;49.61;100258.63;10347173;28;20046;-60
2022/08/30 06:26:54;;;;;;;8.20;3.10;;;;;;;16.40;48.72;100253.50;10347737;28;20635;-60
2022/08/30 06:31:56;;;;;;;6.82;3.03;;;;;;;16.69;48.09;100264.44;10338252;28;20056;-60
2022/08/30 06:36:58;;;;;;;7.25;3.00;;;;;;;16.89;48.06;100267.16;10349801;28;20060;-59
2022/08/30 06:41:59;;;;;;;8.65;3.00;;;;;;;17.04;47.50;100265.06;10345605;28;20046;-59
2022/08/30 06:47:02;;;;;;;9.50;3.22;;;;;;;17.24;47.22;100277.47;10348609;28;20053;-59
2022/08/30 06:52:04;;;;;;;6.63;3.15;;;;;;;17.49;46.67;100269.25;10348611;28;20046;-59
2022/08/30 06:57:05;;;;;;;11.88;3.38;;;;;;;17.65;46.53;100272.28;10344940;28;20066;-59
2022/08/30 07:02:08;;;;;;;5.93;3.30;;;;;;;17.55;46.68;100274.03;10341169;28;20054;-59
2022/08/30 07:07:10;;;;;;;7.45;3.20;;;;;;;17.61;46.59;100275.31;10342814;28;20136;-59
2022/08/30 07:12:12;;;;;;;8.10;3.42;;;;;;;17.87;46.40;100275.78;10344951;28;20049;-59
2022/08/30 07:22:35;;;;;;;7.82;3.63;;;;;;;18.47;45.63;100275.84;10347860;28;20087;-59
2022/08/30 07:27:37;;;;;;;8.77;3.30;;;;;;;18.47;45.78;100278.50;10348625;28;20502;-59
2022/08/30 07:32:39;;;;;;;10.23;3.30;;;;;;;18.62;45.18;100278.03;10347099;28;20046;-59
2022/08/30 07:37:40;;;;;;;10.93;3.65;;;;;;;19.29;44.27;100280.84;10348239;28;20057;-59
2022/08/30 07:42:42;;;;;;;6.03;3.20;;;;;;;20.07;42.70;100272.69;10346734;28;20054;-59
2022/08/30 07:47:44;;;;;;;9.52;3.40;;;;;;;20.40;42.31;100268.66;10348003;28;20053;-59
2022/08/30 07:52:46;;;;;;;9.27;3.47;;;;;;;21.14;40.98;100265.91;10344424;28;20108;-59
2022/08/30 07:57:48;;;;;;;8.40;3.38;;;;;;;21.23;40.65;100268.53;10344301;28;20064;-59
2022/08/30 08:02:49;;;;;;;7.93;3.33;;;;;;;21.64;39.96;100264.44;10346007;28;20045;-59
2022/08/30 08:07:51;;;;;;;10.75;3.20;;;;;;;22.25;38.79;100267.84;10345425;28;20053;-59
2022/08/30 08:12:53;;;;;;;10.82;3.25;;;;;;;22.58;38.26;100268.84;10345732;28;20060;-59
2022/08/30 08:17:55;;;;;;;12.38;2.75;;;;;;;22.30;38.62;100268.22;10345764;28;20636;-59
2022/08/30 08:22:57;;;;;;;8.80;3.08;;;;;;;23.20;37.20;100264.91;10345201;28;20050;-59
2022/08/30 08:27:59;;;;;;;9.77;2.88;;;;;;;23.50;36.70;100258.97;10344805;28;20136;-60
2022/08/30 08:33:02;;;;;;;7.25;3.17;;;;;;;23.80;36.03;100258.28;10344345;28;20042;-59
2022/08/30 08:38:04;;;;;;;5.60;2.83;;;;;;;24.05;35.28;100253.75;10345466;28;20241;-59
2022/08/30 08:43:17;;;;;;;10.40;2.90;;;;;;;24.38;34.76;100257.19;10344916;28;20502;-59
2022/08/30 08:48:27;;;;;;;9.48;2.90;;;;;;;24.33;34.01;100255.03;10342606;28;20046;-59
2022/08/30 08:53:56;;;;;;;8.30;3.22;;;;;;;24.87;33.26;100248.00;10343153;28;21086;-59
2022/08/30 08:58:58;;;;;;;8.52;2.65;;;;;;;24.95;33.47;100239.91;10345135;28;20560;-60
2022/08/30 09:04:04;;;;;;;13.95;3.20;;;;;;;25.22;32.60;100227.88;10344377;28;20139;-59
2022/08/30 09:09:06;;;;;;;9.23;3.10;;;;;;;25.19;32.58;100231.72;10344792;28;20056;-59
2022/08/30 09:14:13;;;;;;;6.15;2.60;;;;;;;25.76;31.73;100227.59;10345133;28;20050;-60
2022/08/30 09:19:54;;;;;;;7.47;2.80;;;;;;;26.30;30.47;100225.53;10343429;28;20069;-60
2022/08/30 09:25:27;;;;;;;8.25;2.90;;;;;;;26.88;29.33;100215.75;10344153;28;20054;-59
2022/08/30 09:30:30;;;;;;;11.18;2.92;;;;;;;26.73;30.23;100206.94;10346490;28;20049;-60
2022/08/30 09:35:36;;;;;;;7.30;2.95;;;;;;;27.31;28.89;100201.38;10345268;28;20050;-59
2022/08/30 09:40:42;;;;;;;8.10;2.92;;;;;;;26.81;29.23;100199.63;10344110;28;20050;-59
2022/08/30 09:46:05;;;;;;;6.47;2.75;;;;;;;26.46;29.67;100189.66;10343915;28;20053;-60
2022/08/30 09:51:10;;;;;;;7.07;2.97;;;;;;;26.67;29.47;100173.63;10343553;28;20077;-58
2022/08/30 09:56:19;;;;;;;9.27;2.67;;;;;;;26.60;29.40;100184.31;10341465;28;20070;-57
2022/08/30 10:01:25;;;;;;;8.40;2.97;;;;;;;26.82;28.92;100181.63;10344623;28;20060;-57
2022/08/30 10:06:59;;;;;;;5.75;2.83;;;;;;;26.75;27.91;100173.50;10343389;28;20120;-57
2022/08/30 10:12:11;;;;;;;11.45;3.00;;;;;;;26.74;28.20;100169.19;10343625;28;20042;-57
2022/08/30 10:17:37;;;;;;;6.53;2.65;;;;;;;26.97;28.35;100164.47;10343275;28;20141;-57
2022/08/30 10:22:45;;;;;;;9.27;2.97;;;;;;;27.05;27.42;100158.97;10344158;28;20054;-59
2022/08/30 10:28:18;;;;;;;8.07;2.80;;;;;;;26.83;27.53;100149.25;10342440;28;20426;-59
2022/08/30 10:33:27;;;;;;;10.52;2.90;;;;;;;27.20;27.07;100146.31;10341827;28;20120;-59
2022/08/30 10:38:38;;;;;;;8.30;2.80;;;;;;;27.22;26.63;100146.97;10342495;28;21155;-60
2022/08/30 10:43:59;;;;;;;7.10;2.80;;;;;;;27.31;26.48;100147.66;10346278;28;20046;-60
2022/08/30 10:49:03;;;;;;;8.38;3.00;;;;;;;27.08;26.88;100139.78;10347848;28;20056;-57
2022/08/30 10:54:15;;;;;;;6.80;2.80;;;;;;;26.98;26.54;100130.38;10348737;28;20068;-60
2022/08/30 10:59:19;;;;;;;10.70;2.60;;;;;;;27.04;26.66;100141.19;10349262;28;20057;-59
2022/08/30 11:04:39;;;;;;;5.97;2.80;;;;;;;27.10;25.97;100140.41;10349470;28;20058;-60
2022/08/30 11:09:55;;;;;;;5.30;2.47;;;;;;;27.04;25.89;100132.31;10347356;28;20502;-60
2022/08/30 11:14:58;;;;;;;8.98;2.67;;;;;;;26.83;25.77;100126.94;10348276;28;20045;-61
2022/08/30 11:20:03;;;;;;;9.70;2.60;;;;;;;26.94;25.93;100124.56;10349139;28;20057;-60
2022/08/30 11:25:04;;;;;;;7.30;2.58;;;;;;;27.37;25.78;100131.59;10346475;28;20125;-60
2022/08/30 11:30:25;;;;;;;7.95;2.53;;;;;;;26.98;24.58;100122.34;10346807;28;20061;-60
2022/08/30 11:36:00;;;;;;;6.55;2.58;;;;;;;26.89;25.02;100116.28;10348188;28;20054;-60
2022/08/30 11:41:12;;;;;;;7.10;2.55;;;;;;;26.97;24.99;100109.94;10356139;28;20058;-60
2022/08/30 11:46:25;;;;;;;4.30;2.30;;;;;;;27.02;24.80;100105.66;10340330;28;20054;-60
2022/08/30 11:52:11;;;;;;;7.97;2.80;;;;;;;27.24;24.54;100110.00;10347570;28;20046;-60
2022/08/30 11:57:48;;;;;;;7.80;2.53;;;;;;;27.19;24.66;100101.72;10345065;28;20188;-60
2022/08/30 12:02:55;;;;;;;5.07;2.25;;;;;;;27.21;25.08;100094.28;10347875;28;20796;-60
2022/08/30 12:08:02;;;;;;;8.07;2.55;;;;;;;27.31;24.50;100086.72;10347641;28;20054;-60
2022/08/30 12:13:04;;;;;;;8.63;2.40;;;;;;;27.14;24.68;100088.03;10347551;28;20085;-60
2022/08/30 12:18:27;;;;;;;5.57;2.53;;;;;;;27.30;24.64;100082.38;10345279;28;20054;-60
2022/08/30 12:23:37;;;;;;;8.90;2.42;;;;;;;27.52;24.13;100079.63;10341738;28;20073;-60
2022/08/30 12:28:48;;;;;;;5.07;2.40;;;;;;;27.65;24.21;100077.03;10346780;28;20049;-60
2022/08/30 12:33:58;;;;;;;3.67;2.20;;;;;;;27.68;23.93;100071.25;10345284;28;20439;-60
2022/08/30 12:39:14;;;;;;;6.72;2.50;;;;;;;27.55;23.97;100080.06;10343999;28;20057;-60
2022/08/30 12:44:23;;;;;;;6.88;2.40;;;;;;;27.88;23.81;100064.13;10345064;28;20042;-60
2022/08/30 12:49:28;;;;;;;6.30;2.47;;;;;;;28.20;23.73;100058.06;10343801;28;20073;-61
2022/08/30 12:54:30;;;;;;;6.07;2.45;;;;;;;28.08;23.63;100051.59;10342157;28;20141;-60
2022/08/30 12:59:50;;;;;;;5.22;2.50;;;;;;;28.25;23.31;100059.13;10343642;28;20053;-60
2022/08/30 13:05:31;;;;;;;5.10;2.30;;;;;;;28.34;22.99;100050.91;10341894;28;20144;-61
2022/08/30 13:10:33;;;;;;;8.50;2.50;;;;;;;28.48;23.02;100042.66;10343255;28;20057;-60
2022/08/30 13:15:41;;;;;;;8.13;2.80;;;;;;;28.36;22.77;100036.19;10343965;28;20056;-60
2022/08/30 13:20:45;;;;;;;4.60;2.30;;;;;;;28.62;22.86;100028.19;10342140;28;20144;-60
2022/08/30 13:25:48;;;;;;;5.28;2.30;;;;;;;28.84;22.86;100024.28;10342457;28;20061;-61
2022/08/30 13:30:50;;;;;;;6.97;2.40;;;;;;;29.11;22.47;100019.72;10341826;28;20557;-60
2022/08/30 13:35:52;;;;;;;6.35;2.13;;;;;;;29.18;22.44;100019.69;10342156;28;20056;-60
2022/08/30 13:40:54;;;;;;;10.65;2.40;;;;;;;29.36;22.23;100015.31;10340290;28;20490;-59
2022/08/30 13:45:57;;;;;;;8.35;2.28;;;;;;;29.11;21.88;100014.34;10342551;28;20046;-59
2022/08/30 13:50:59;;;;;;;6.50;2.28;;;;;;;29.03;22.24;100009.19;10341427;28;20053;-58
2022/08/30 13:56:03;;;;;;;5.65;2.10;;;;;;;28.95;22.01;100004.00;10342183;28;20049;-58
2022/08/30 14:01:04;;;;;;;7.53;2.53;;;;;;;29.06;22.14;99996.09;10341400;28;20061;-58
2022/08/30 14:06:07;;;;;;;6.88;2.30;;;;;;;29.22;22.12;99988.59;10337390;28;20077;-58
2022/08/30 14:11:29;;;;;;;4.10;2.30;;;;;;;28.99;22.44;99997.97;10342454;28;20066;-58
2022/08/30 14:16:32;;;;;;;6.53;2.70;;;;;;;29.16;22.48;99989.44;10342837;28;20418;-58
2022/08/30 14:21:34;;;;;;;4.72;2.60;;;;;;;29.36;22.34;99984.88;10349531;28;20062;-58
2022/08/30 14:26:39;;;;;;;5.25;2.58;;;;;;;29.66;21.87;99983.34;10349132;28;20354;-58
2022/08/30 14:31:42;;;;;;;6.70;2.60;;;;;;;29.46;21.83;99983.41;10350084;28;20042;-59
2022/08/30 14:36:44;;;;;;;8.90;2.25;;;;;;;29.20;22.20;99971.81;10346100;28;20045;-58
2022/08/30 14:41:52;;;;;;;7.45;2.85;;;;;;;28.62;22.38;99969.00;10349639;28;20054;-58
2022/08/30 14:46:55;;;;;;;8.60;2.53;;;;;;;28.67;22.53;99968.34;10347819;28;20062;-58
2022/08/30 14:51:57;;;;;;;5.40;2.22;;;;;;;28.60;22.62;99957.59;10348755;28;20056;-58
2022/08/30 14:56:59;;;;;;;5.43;2.28;;;;;;;28.51;22.63;99953.44;10347821;28;20060;-58
2022/08/30 15:02:01;;;;;;;6.82;2.72;;;;;;;28.54;22.63;99957.59;10345416;28;20046;-58
2022/08/30 15:07:02;;;;;;;7.50;2.42;;;;;;;28.98;22.51;99949.72;10346475;28;20188;-58
2022/08/30 15:12:05;;;;;;;5.40;2.45;;;;;;;28.92;21.89;99942.47;10342600;28;20175;-58
2022/08/30 15:17:08;;;;;;;7.10;2.33;;;;;;;28.80;22.00;99936.88;10340119;28;20049;-58
2022/08/30 15:22:09;;;;;;;4.50;2.22;;;;;;;28.72;21.86;99934.41;10346634;28;20052;-58
2022/08/30 15:27:11;;;;;;;7.15;2.30;;;;;;;28.82;21.86;99929.41;10347181;28;20413;-58
2022/08/30 15:32:13;;;;;;;5.63;2.30;;;;;;;28.90;21.54;99918.47;10344757;28;20064;-58
2022/08/30 15:37:21;;;;;;;5.25;2.40;;;;;;;28.83;21.79;99920.28;10346535;28;20065;-58
2022/08/30 15:42:22;;;;;;;5.30;2.40;;;;;;;29.09;21.72;99914.88;10346186;28;20141;-58
2022/08/30 15:47:24;;;;;;;5.85;2.10;;;;;;;29.39;21.58;99917.94;10346131;28;20144;-58
2022/08/30 15:52:26;;;;;;;9.15;2.40;;;;;;;29.60;21.24;99912.22;10345480;28;20049;-58
2022/08/30 15:57:28;;;;;;;5.78;2.30;;;;;;;29.76;21.31;99900.13;10346279;28;20506;-58
2022/08/30 16:02:30;;;;;;;5.63;2.40;;;;;;;29.84;20.98;99895.31;10320361;28;20073;-58
2022/08/30 16:07:32;;;;;;;10.07;2.40;;;;;;;29.65;21.30;99895.41;10337886;28;20068;-58
2022/08/30 16:12:41;;;;;;;8.68;2.50;;;;;;;29.33;21.94;99905.28;10341321;28;20046;-58
2022/08/30 16:17:43;;;;;;;6.18;2.60;;;;;;;28.73;22.94;99906.44;10340994;28;20642;-58
2022/08/30 16:22:45;;;;;;;6.72;2.58;;;;;;;28.13;24.11;99904.78;10342309;28;20049;-58
2022/08/30 16:27:47;;;;;;;7.72;2.60;;;;;;;27.67;24.46;99903.81;10344988;28;20077;-58
2022/08/30 16:32:50;;;;;;;5.93;2.47;;;;;;;27.47;24.67;99903.75;10340738;28;20049;-61
2022/08/30 16:37:51;;;;;;;6.50;2.50;;;;;;;27.56;24.55;99895.50;10342978;28;20181;-61
2022/08/30 16:42:53;;;;;;;8.40;2.80;;;;;;;27.91;24.26;99899.78;10341381;28;20049;-61
2022/08/30 16:47:55;;;;;;;9.70;2.70;;;;;;;28.22;23.63;99894.63;10345342;28;20056;-61
2022/08/30 16:52:56;;;;;;;5.05;2.63;;;;;;;28.18;23.89;99896.06;10343489;28;20046;-61
2022/08/30 16:57:58;;;;;;;9.88;2.63;;;;;;;28.02;23.78;99896.47;10344820;28;20062;-61
2022/08/30 17:03:00;;;;;;;4.53;2.50;;;;;;;27.90;24.07;99893.56;10344250;28;20052;-61
2022/08/30 17:08:03;;;;;;;7.10;2.55;;;;;;;27.63;24.61;99902.53;10344838;28;20161;-61
2022/08/30 17:13:05;;;;;;;7.25;2.58;;;;;;;27.21;25.21;99906.31;10342950;28;20756;-59
2022/08/30 17:18:07;;;;;;;4.78;2.50;;;;;;;27.03;25.56;99902.47;10340450;28;20049;-59
2022/08/30 17:23:09;;;;;;;5.38;2.70;;;;;;;26.92;25.78;99906.53;10341779;28;20053;-60
2022/08/30 17:28:11;;;;;;;5.85;2.45;;;;;;;26.76;25.99;99912.22;10342069;28;20958;-59
2022/08/30 17:33:13;;;;;;;7.05;2.67;;;;;;;26.62;26.22;99913.97;10342215;28;20503;-59
2022/08/30 17:38:18;;;;;;;8.43;2.67;;;;;;;26.47;26.49;99925.78;10343504;28;20145;-59
2022/08/30 17:43:20;;;;;;;4.78;2.70;;;;;;;26.29;26.71;99934.28;10341419;28;20422;-59
2022/08/30 17:48:21;;;;;;;6.60;2.42;;;;;;;26.06;26.87;99938.19;10342018;28;20054;-59
2022/08/30 17:53:23;;;;;;;8.13;2.65;;;;;;;25.93;27.07;99941.53;10344339;28;20569;-59
2022/08/30 17:58:25;;;;;;;6.40;3.00;;;;;;;25.83;27.85;99941.81;10349710;28;20058;-59
2022/08/30 18:03:27;;;;;;;6.00;2.90;;;;;;;25.62;27.77;99954.34;10345547;28;20053;-59
2022/08/30 18:08:30;;;;;;;5.80;2.50;;;;;;;25.48;27.97;99958.72;10349590;28;20104;-60
2022/08/30 18:13:32;;;;;;;9.60;2.70;;;;;;;25.34;27.91;99966.75;10348981;28;20054;-59
2022/08/30 18:18:35;;;;;;;11.95;3.10;;;;;;;25.23;28.64;99969.84;10349009;28;20068;-59
2022/08/30 18:23:36;;;;;;;6.13;2.63;;;;;;;25.06;29.26;99975.38;10347971;28;20042;-59
2022/08/30 18:28:41;;;;;;;11.95;3.10;;;;;;;24.87;29.31;99980.44;10346065;28;20112;-59
2022/08/30 18:33:42;;;;;;;6.03;2.75;;;;;;;24.74;29.97;99982.91;10342115;28;20072;-59
2022/08/30 18:38:44;;;;;;;9.57;3.00;;;;;;;24.61;30.11;99988.81;10345912;28;20054;-60
2022/08/30 18:43:46;;;;;;;8.52;2.80;;;;;;;24.44;30.44;99989.16;10343365;28;20068;-59
2022/08/30 18:48:47;;;;;;;6.38;2.60;;;;;;;24.26;30.62;99998.31;10347380;28;20046;-59
2022/08/30 18:53:50;;;;;;;11.63;2.95;;;;;;;24.10;30.90;99997.59;10348679;28;20046;-60
2022/08/30 18:58:52;;;;;;;10.98;2.95;;;;;;;23.97;31.32;100007.97;10347747;28;20492;-60
2022/08/30 19:03:54;;;;;;;12.05;3.00;;;;;;;23.80;31.69;100001.88;10347715;28;20046;-60
2022/08/30 19:08:55;;;;;;;12.85;3.28;;;;;;;23.70;31.74;100011.94;10349043;28;20052;-60
2022/08/30 19:13:58;;;;;;;9.07;2.70;;;;;;;23.57;32.13;100019.69;10346830;28;20049;-60
2022/08/30 19:19:01;;;;;;;7.97;2.92;;;;;;;23.49;31.99;100025.06;10348424;28;20053;-60
2022/08/30 19:24:04;;;;;;;10.13;3.25;;;;;;;23.33;32.20;100033.09;10346852;28;20068;-60
2022/08/30 19:29:06;;;;;;;11.68;2.80;;;;;;;23.27;32.57;100031.06;10348370;28;20048;-60
2022/08/30 19:34:08;;;;;;;8.38;3.00;;;;;;;23.12;32.92;100032.78;10347607;28;20046;-60
2022/08/30 19:39:10;;;;;;;7.55;3.00;;;;;;;23.08;33.41;100036.78;10345663;28;20046;-60
2022/08/30 19:44:12;;;;;;;14.15;3.25;;;;;;;23.00;33.48;100039.47;10346748;28;20097;-59
2022/08/30 19:49:14;;;;;;;11.02;3.05;;;;;;;22.95;33.43;100041.78;10348032;28;20068;-60
2022/08/30 19:54:16;;;;;;;8.30;2.80;;;;;;;22.93;33.44;100049.97;10346593;28;20090;-59
2022/08/30 19:59:18;;;;;;;9.43;3.15;;;;;;;22.81;34.10;100050.47;10347126;28;20120;-59
2022/08/30 20:04:20;;;;;;;10.65;2.85;;;;;;;22.71;34.01;100063.94;10346786;28;20050;-59
2022/08/30 20:09:23;;;;;;;7.47;2.85;;;;;;;22.55;34.22;100066.59;10344144;28;20550;-59
2022/08/30 20:14:25;;;;;;;8.90;2.65;;;;;;;22.49;34.41;100061.94;10339239;28;20045;-59
2022/08/30 20:19:27;;;;;;;9.90;3.20;;;;;;;22.45;34.83;100068.59;10342955;28;20050;-59
2022/08/30 20:24:29;;;;;;;7.55;2.80;;;;;;;22.42;35.12;100067.06;10343911;28;20077;-60
2022/08/30 20:29:33;;;;;;;4.68;2.47;;;;;;;22.39;35.15;100067.38;10345538;28;20457;-59
2022/08/30 20:34:35;;;;;;;9.07;3.03;;;;;;;22.37;35.08;100073.91;10346684;28;20056;-60
2022/08/30 20:39:37;;;;;;;7.68;2.90;;;;;;;22.29;35.35;100080.03;10344424;28;20112;-60
2022/08/30 20:44:39;;;;;;;8.68;2.83;;;;;;;22.31;35.53;100078.03;10340934;28;20046;-59
2022/08/30 20:49:42;;;;;;;7.78;2.50;;;;;;;22.25;35.44;100086.66;10345666;28;20056;-59
2022/08/30 20:54:43;;;;;;;10.60;2.63;;;;;;;22.11;35.80;100081.16;10342110;28;20054;-59
2022/08/30 20:59:45;;;;;;;6.25;2.63;;;;;;;22.14;36.25;100079.00;10345971;28;20133;-60
2022/08/30 21:04:47;;;;;;;11.63;2.83;;;;;;;22.16;36.18;100073.50;10344376;28;20037;-59
2022/08/30 21:09:49;;;;;;;8.63;2.70;;;;;;;22.20;36.33;100081.00;10344297;28;20183;-59
2022/08/30 21:14:51;;;;;;;9.23;2.97;;;;;;;22.22;36.47;100086.16;10342875;28;20494;-59
2022/08/30 21:19:54;;;;;;;8.60;2.90;;;;;;;22.13;36.59;100077.31;10342136;28;20410;-59
2022/08/30 21:24:55;;;;;;;4.85;2.30;;;;;;;22.13;36.80;100087.97;10342162;28;20156;-59
2022/08/30 21:29:57;;;;;;;7.88;2.60;;;;;;;22.10;36.75;100085.66;10344219;28;20050;-60
2022/08/30 21:40:19;;;;;;;9.27;2.95;;;;;;;22.12;37.02;100093.47;10338121;28;20064;-60
2022/08/30 21:45:21;;;;;;;5.45;2.55;;;;;;;22.06;37.33;100097.63;10344003;28;20048;-60
2022/08/30 21:50:23;;;;;;;5.90;2.72;;;;;;;22.03;37.42;100095.25;10341362;28;20060;-59
2022/08/30 21:55:25;;;;;;;10.13;2.75;;;;;;;22.05;37.69;100106.59;10343162;28;20055;-59
2022/08/30 22:00:27;;;;;;;7.10;2.90;;;;;;;22.04;37.57;100104.09;10338903;28;20114;-60
2022/08/30 22:05:28;;;;;;;5.65;2.70;;;;;;;21.75;37.96;100109.75;10342201;28;20414;-60
2022/08/30 22:10:30;;;;;;;6.25;2.97;;;;;;;21.64;38.39;100112.72;10339522;28;20596;-60
2022/08/30 22:15:33;;;;;;;6.72;2.90;;;;;;;21.65;38.38;100111.69;10340119;28;20593;-59
2022/08/30 22:20:38;;;;;;;11.88;3.10;;;;;;;21.68;38.59;100104.22;10341114;28;20057;-59
2022/08/30 22:25:40;;;;;;;5.97;2.80;;;;;;;21.78;38.65;100106.78;10342584;28;20414;-60
2022/08/30 22:30:42;;;;;;;8.35;2.63;;;;;;;21.74;38.45;100108.91;10336461;28;20498;-60
2022/08/30 22:35:45;;;;;;;6.20;3.00;;;;;;;21.80;38.42;100115.44;10337287;28;20050;-60
2022/08/30 22:40:49;;;;;;;4.88;2.60;;;;;;;21.81;38.44;100109.13;10344198;28;20061;-59
2022/08/30 22:45:51;;;;;;;8.40;2.85;;;;;;;21.68;38.75;100111.41;10348512;28;20046;-59
2022/08/30 22:50:53;;;;;;;7.72;2.83;;;;;;;21.67;38.94;100115.88;10347244;28;20046;-59
2022/08/30 22:55:54;;;;;;;6.53;2.83;;;;;;;21.51;39.09;100117.59;10347230;28;20060;-59
2022/08/30 23:00:57;;;;;;;7.95;3.00;;;;;;;21.41;39.45;100124.84;10347106;28;20054;-60
2022/08/30 23:06:01;;;;;;;6.82;2.83;;;;;;;21.34;39.56;100127.28;10347009;28;20046;-59
2022/08/30 23:11:03;;;;;;;7.15;3.30;;;;;;;21.25;39.66;100127.38;10348035;28;20037;-59
2022/08/30 23:16:06;;;;;;;9.43;2.88;;;;;;;21.08;39.94;100135.22;10345997;28;20604;-59
2022/08/30 23:21:11;;;;;;;5.13;2.85;;;;;;;21.09;40.02;100131.56;10342515;28;20211;-60
